LFCK/DCM METAR and TAF weather

Enter ICAO airport designator
Station Type Date Time Source
LFCK METAR 2019/07/17 12:30 UTC NOAA

LFCK 171230Z AUTO 31009KT 260V360 CAVOK 29/12 Q1016 NOSIG


Station Type Date Time Source
LFCK Decoded METAR 2019/07/17 12:30 UTC NOAA

Station name not available
Jul 17, 2019 - 08:30 AM EDT / 2019.07.17 1230 UTC
Wind: from the NW (310 degrees) at 10 MPH (9 KT) (direction variable):0
Visibility: greater than 7 mile(s):0
Temperature: 84 F (29 C)
Dew Point: 53 F (12 C)
Relative Humidity: 34%
Pressure (altimeter): 30.00 in. Hg (1016 hPa)
ob: LFCK 171230Z AUTO 31009KT 260V360 CAVOK 29/12 Q1016 NOSIG
cycle: 12

Station Type Date Time Source
LFCK TAF UTC NOAA

Error!

Example: see airport list